Time;durP1;ratioP1;P1;durP2;ratioP2;P2;SDS_P1;SDS_P2;PMS_P1;PMS_P2;Temp;Humidity;BMP_temperature;BMP_pressure;BME280_temperature;BME280_humidity;BME280_pressure;Samples;Min_cycle;Max_cycle;Signal;HPM_P1;HPM_P2
2023/03/23 00:05:49;;;;;;;1.60;1.50;;;;;;;11.85;81.13;99743.97;5067648;28;20060;-87
2023/03/23 00:08:21;;;;;;;2.88;1.02;;;;;;;11.70;83.75;99745.28;5053101;28;20122;-88
2023/03/23 00:10:56;;;;;;;1.95;1.08;;;;;;;11.56;86.89;99736.06;5051361;28;20044;-89
2023/03/23 00:13:33;;;;;;;3.00;1.33;;;;;;;11.51;88.50;99737.94;5051210;28;20052;-89
2023/03/23 00:16:17;;;;;;;1.95;1.45;;;;;;;11.40;90.27;99740.00;5048319;28;20120;-89
2023/03/23 00:19:07;;;;;;;1.58;1.27;;;;;;;11.32;91.99;99736.72;5041190;28;20082;-89
2023/03/23 00:21:38;;;;;;;2.17;1.17;;;;;;;11.31;92.81;99741.09;5065006;28;20048;-88
2023/03/23 00:24:19;;;;;;;1.30;1.20;;;;;;;11.29;93.55;99728.94;5048795;28;20041;-87
2023/03/23 00:26:51;;;;;;;1.63;1.52;;;;;;;11.22;94.29;99725.63;5043731;28;20045;-88
2023/03/23 00:29:22;;;;;;;1.83;1.35;;;;;;;11.20;95.21;99719.56;5034392;28;20535;-89
2023/03/23 00:31:56;;;;;;;2.03;1.10;;;;;;;11.23;95.33;99724.72;5050779;28;20092;-88
2023/03/23 00:34:32;;;;;;;4.13;1.60;;;;;;;11.17;96.92;99717.91;5046356;28;20071;-90
2023/03/23 00:37:02;;;;;;;1.60;1.50;;;;;;;11.14;96.97;99727.59;5051675;28;20090;-89
2023/03/23 00:39:31;;;;;;;5.65;1.77;;;;;;;11.12;97.64;99729.38;5058971;28;20519;-89
2023/03/23 00:42:01;;;;;;;2.50;1.45;;;;;;;11.11;97.76;99725.91;5047825;28;20048;-89
2023/03/23 00:44:37;;;;;;;2.75;1.77;;;;;;;11.09;98.33;99714.59;5041052;28;20048;-90
2023/03/23 00:47:09;;;;;;;2.13;1.92;;;;;;;11.11;98.54;99706.69;5044582;28;20094;-86
2023/03/23 00:49:37;;;;;;;4.00;1.67;;;;;;;11.11;98.71;99711.94;5042507;28;20048;-86
2023/03/23 00:52:07;;;;;;;1.98;1.45;;;;;;;11.11;99.74;99706.69;5043037;28;20060;-88
2023/03/23 00:54:36;;;;;;;3.15;1.63;;;;;;;11.12;99.86;99713.66;5027282;28;20067;-89
2023/03/23 00:57:03;;;;;;;1.88;1.77;;;;;;;11.04;100.00;99712.13;5031816;28;20096;-89
2023/03/23 00:59:31;;;;;;;2.25;1.80;;;;;;;11.02;100.00;99719.13;5028518;28;20070;-88
2023/03/23 01:01:58;;;;;;;6.82;1.85;;;;;;;10.99;100.00;99707.88;5046795;28;20120;-87
2023/03/23 01:04:28;;;;;;;3.22;1.88;;;;;;;11.00;100.00;99701.75;5048461;28;20087;-87
2023/03/23 01:06:56;;;;;;;1.75;1.13;;;;;;;11.05;100.00;99699.88;5029129;28;20053;-88
2023/03/23 01:09:22;;;;;;;1.60;1.20;;;;;;;11.03;100.00;99701.66;5047101;28;20504;-88
2023/03/23 01:11:52;;;;;;;3.85;1.42;;;;;;;11.08;100.00;99698.03;5045108;28;20049;-87
2023/03/23 01:14:22;;;;;;;1.85;1.40;;;;;;;11.12;100.00;99687.47;5028146;28;20049;-89
2023/03/23 01:16:51;;;;;;;5.85;1.75;;;;;;;11.16;100.00;99697.84;5043847;28;20057;-87
2023/03/23 01:19:32;;;;;;;3.42;1.75;;;;;;;11.09;100.00;99683.16;5053955;28;20067;-89
2023/03/23 01:28:36;;;;;;;2.17;2.00;;;;;;;10.92;100.00;99675.75;5032538;28;20056;-89
2023/03/23 01:31:06;;;;;;;3.08;1.73;;;;;;;10.92;100.00;99670.53;5028734;28;20048;-87
2023/03/23 01:33:33;;;;;;;1.98;1.58;;;;;;;10.89;100.00;99671.47;5012257;28;20956;-87
2023/03/23 01:36:13;;;;;;;5.20;2.28;;;;;;;10.88;100.00;99668.88;5017011;28;20037;-88
2023/03/23 01:38:42;;;;;;;2.70;2.08;;;;;;;10.85;100.00;99661.13;5027088;28;20060;-88
2023/03/23 01:41:12;;;;;;;5.88;2.10;;;;;;;10.85;100.00;99661.13;5042312;28;20045;-88
2023/03/23 01:44:20;;;;;;;1.80;1.70;;;;;;;10.82;100.00;99653.31;5010166;28;20067;-88
2023/03/23 01:46:47;;;;;;;3.90;1.98;;;;;;;10.83;100.00;99645.44;4966592;28;20497;-88
2023/03/23 01:49:20;;;;;;;2.00;1.75;;;;;;;10.84;100.00;99651.53;5017378;28;20045;-88
2023/03/23 01:52:11;;;;;;;4.90;1.75;;;;;;;10.85;100.00;99664.59;5010119;28;20049;-89
2023/03/23 01:54:46;;;;;;;2.13;1.45;;;;;;;10.84;100.00;99654.16;5013476;28;20037;-86
2023/03/23 01:57:20;;;;;;;3.75;1.58;;;;;;;10.81;100.00;99656.84;5022088;28;20068;-87
2023/03/23 01:59:51;;;;;;;2.38;1.20;;;;;;;10.78;100.00;99652.56;5029356;28;20053;-88
2023/03/23 02:02:23;;;;;;;2.88;1.45;;;;;;;10.78;100.00;99652.56;5027434;28;20057;-89
2023/03/23 02:04:51;;;;;;;2.42;1.55;;;;;;;10.79;100.00;99651.66;5023546;28;20779;-86
2023/03/23 02:07:23;;;;;;;2.75;1.95;;;;;;;10.81;100.00;99654.22;5028240;28;20041;-87
2023/03/23 02:09:52;;;;;;;3.42;1.30;;;;;;;10.82;100.00;99655.94;5013190;28;20053;-89
2023/03/23 02:12:22;;;;;;;1.50;1.40;;;;;;;10.85;100.00;99661.13;5027346;28;20048;-87
2023/03/23 02:14:51;;;;;;;1.83;1.60;;;;;;;10.86;100.00;99655.84;5023621;28;20041;-88
2023/03/23 02:17:26;;;;;;;2.60;1.60;;;;;;;10.88;100.00;99646.16;5020751;28;20164;-87
2023/03/23 02:20:42;;;;;;;2.30;1.50;;;;;;;10.90;100.00;99644.38;5011454;28;20049;-88
2023/03/23 02:23:43;;;;;;;3.05;1.42;;;;;;;10.90;100.00;99647.00;5040683;28;20056;-89
2023/03/23 02:26:56;;;;;;;3.40;1.33;;;;;;;10.95;100.00;99635.53;5035015;28;20049;-87
2023/03/23 02:30:11;;;;;;;2.33;1.17;;;;;;;10.98;100.00;99638.09;5025082;28;20037;-90
2023/03/23 02:33:17;;;;;;;2.50;1.92;;;;;;;11.00;100.00;99634.53;5010042;28;20044;-87
2023/03/23 02:35:55;;;;;;;1.58;1.48;;;;;;;11.01;100.00;99643.25;5028136;28;20051;-88
2023/03/23 02:38:59;;;;;;;3.05;1.85;;;;;;;10.99;100.00;99627.56;5009246;28;20053;-87
2023/03/23 02:41:34;;;;;;;1.92;1.63;;;;;;;10.94;100.00;99603.28;5021584;28;20659;-86
2023/03/23 02:44:05;;;;;;;7.15;3.35;;;;;;;10.91;100.00;99592.88;5015882;28;20920;-88
2023/03/23 02:46:32;;;;;;;4.13;1.42;;;;;;;10.89;100.00;99607.78;5042776;28;20045;-88
2023/03/23 02:49:01;;;;;;;1.88;1.65;;;;;;;10.87;100.00;99615.69;5025924;28;20533;-89
2023/03/23 02:51:30;;;;;;;2.47;1.90;;;;;;;10.87;100.00;99610.44;5009068;28;20114;-87
2023/03/23 02:53:57;;;;;;;3.38;1.38;;;;;;;10.85;100.00;99609.59;5009791;28;20087;-88
2023/03/23 02:56:29;;;;;;;1.63;1.52;;;;;;;10.84;100.00;99615.75;5015528;28;20044;-86
2023/03/23 02:58:56;;;;;;;8.20;1.70;;;;;;;10.86;100.00;99606.09;5028058;28;20075;-86
2023/03/23 03:01:26;;;;;;;1.73;1.63;;;;;;;10.88;100.00;99603.44;5029863;28;20405;-88
2023/03/23 03:03:55;;;;;;;4.97;1.27;;;;;;;10.88;100.00;99593.81;5037335;28;20128;-89
2023/03/23 03:06:40;;;;;;;4.25;1.83;;;;;;;10.89;100.00;99589.44;5014242;28;20081;-88
2023/03/23 03:09:31;;;;;;;1.67;1.40;;;;;;;10.88;100.00;99587.72;5019181;28;20045;-87
2023/03/23 03:12:28;;;;;;;3.05;1.95;;;;;;;10.85;100.00;99586.03;5027316;28;20082;-87
2023/03/23 03:15:22;;;;;;;4.22;1.33;;;;;;;10.85;100.00;99587.81;5017557;28;20064;-87
2023/03/23 03:18:16;;;;;;;2.60;1.10;;;;;;;10.81;100.00;99594.88;5030449;28;20053;-87
2023/03/23 03:20:49;;;;;;;1.15;1.15;;;;;;;10.77;100.00;99601.13;5015579;28;20049;-86
2023/03/23 03:23:20;;;;;;;2.33;1.30;;;;;;;10.73;100.00;99597.72;5029258;28;20041;-86
2023/03/23 03:25:48;;;;;;;2.20;1.60;;;;;;;10.69;100.00;99597.81;5017080;28;20041;-86
2023/03/23 03:28:21;;;;;;;5.28;1.50;;;;;;;10.67;100.00;99594.41;5031898;28;20053;-89
2023/03/23 03:31:00;;;;;;;1.65;1.55;;;;;;;10.64;100.00;99576.13;5012079;28;20075;-89
2023/03/23 03:33:33;;;;;;;2.08;1.98;;;;;;;10.59;100.00;99579.75;5011227;28;20041;-89
2023/03/23 03:36:08;;;;;;;2.75;2.20;;;;;;;10.59;100.00;99582.38;5041837;28;20045;-87
2023/03/23 03:38:48;;;;;;;1.90;1.80;;;;;;;10.58;100.00;99580.63;5030019;28;20041;-88
2023/03/23 03:41:15;;;;;;;2.28;1.60;;;;;;;10.56;100.00;99573.75;5014171;28;20053;-86
2023/03/23 03:43:42;;;;;;;2.05;1.95;;;;;;;10.56;100.00;99576.38;5026075;28;20068;-87
2023/03/23 03:46:12;;;;;;;4.75;2.10;;;;;;;10.56;100.00;99574.59;5032109;28;20051;-88
2023/03/23 03:48:41;;;;;;;4.55;1.48;;;;;;;10.58;100.00;99567.56;5015545;28;20071;-88
2023/03/23 03:51:08;;;;;;;2.25;1.63;;;;;;;10.63;100.00;99579.69;5013207;28;20072;-88
2023/03/23 03:53:36;;;;;;;3.70;1.60;;;;;;;10.61;100.00;99579.69;5009375;28;20053;-87
2023/03/23 03:56:07;;;;;;;3.08;1.40;;;;;;;10.64;100.00;99576.13;5014267;28;20068;-88
2023/03/23 03:58:36;;;;;;;2.38;1.60;;;;;;;10.68;100.00;99578.66;5030575;28;20496;-87
2023/03/23 04:01:09;;;;;;;2.08;1.35;;;;;;;10.70;100.00;99571.63;5013119;28;20063;-88
2023/03/23 04:03:38;;;;;;;3.00;1.80;;;;;;;10.69;100.00;99561.16;5024819;28;20087;-86
2023/03/23 04:06:09;;;;;;;2.22;1.45;;;;;;;10.68;100.00;99560.31;5027711;28;20048;-88
2023/03/23 04:08:41;;;;;;;1.45;0.93;;;;;;;10.69;100.00;99561.16;5024771;28;20041;-88
2023/03/23 04:11:16;;;;;;;2.17;1.52;;;;;;;10.69;100.00;99571.63;5012894;28;20040;-88
2023/03/23 04:13:42;;;;;;;5.05;1.30;;;;;;;10.70;100.00;99562.91;5026052;28;20072;-87
2023/03/23 04:16:09;;;;;;;1.05;1.05;;;;;;;10.69;100.00;99563.78;5013649;28;20060;-88
2023/03/23 04:18:37;;;;;;;1.23;1.13;;;;;;;10.68;100.00;99565.56;5014596;28;20099;-88
2023/03/23 04:21:07;;;;;;;1.63;1.25;;;;;;;10.67;100.00;99570.84;5030553;28;20041;-88
2023/03/23 04:23:35;;;;;;;2.10;1.40;;;;;;;10.64;100.00;99569.16;5026522;28;20051;-87
2023/03/23 04:26:03;;;;;;;2.85;1.40;;;;;;;10.60;100.00;99570.16;5013199;28;20094;-87
2023/03/23 04:28:33;;;;;;;1.67;1.10;;;;;;;10.62;100.00;99562.25;5027926;28;20045;-88
2023/03/23 04:31:01;;;;;;;1.98;1.30;;;;;;;10.59;100.00;99556.19;5014411;28;20093;-87
2023/03/23 04:33:30;;;;;;;2.25;1.33;;;;;;;10.57;100.00;99555.38;5026190;28;20048;-88
2023/03/23 04:36:02;;;;;;;2.95;2.00;;;;;;;10.59;100.00;99547.50;5025483;28;20060;-86
2023/03/23 04:38:34;;;;;;;1.67;1.20;;;;;;;10.57;100.00;99554.50;5012275;28;20048;-88
2023/03/23 04:41:01;;;;;;;1.30;1.20;;;;;;;10.52;100.00;99554.66;5042047;28;20162;-89
2023/03/23 04:43:29;;;;;;;1.55;1.45;;;;;;;10.50;100.00;99551.22;5024362;28;20683;-88
2023/03/23 04:46:02;;;;;;;2.08;1.40;;;;;;;10.50;100.00;99547.75;5013341;28;20055;-88
2023/03/23 04:48:33;;;;;;;3.33;1.20;;;;;;;10.49;100.00;99552.09;5027284;28;20514;-88
2023/03/23 04:51:03;;;;;;;1.20;1.08;;;;;;;10.49;100.00;99543.41;5027510;28;20045;-88
2023/03/23 04:53:36;;;;;;;2.60;1.20;;;;;;;10.50;100.00;99545.13;5008169;28;20407;-87
2023/03/23 04:56:03;;;;;;;2.53;1.07;;;;;;;10.51;100.00;99542.47;5024259;28;20511;-87
2023/03/23 04:58:36;;;;;;;1.08;0.80;;;;;;;10.48;100.00;99529.47;5027505;28;20295;-86
2023/03/23 05:01:31;;;;;;;;;;;;;;;;;;;;;
2023/03/23 05:04:00;;;;;;;1.65;1.15;;;;;;;10.49;100.00;99519.84;5010267;28;20041;-88
2023/03/23 05:06:28;;;;;;;1.65;0.90;;;;;;;10.52;100.00;99530.22;5015792;28;20135;-87
2023/03/23 05:08:54;;;;;;;2.55;0.68;;;;;;;10.52;99.53;99536.34;5014185;28;20053;-87
2023/03/23 05:11:22;;;;;;;0.95;0.95;;;;;;;10.54;98.88;99538.91;5025584;28;20809;-88
2023/03/23 05:13:55;;;;;;;1.30;1.02;;;;;;;10.56;98.79;99556.28;5020044;28;20037;-89
2023/03/23 05:16:25;;;;;;;0.75;0.75;;;;;;;10.57;97.97;99551.91;5017855;28;20479;-87
2023/03/23 05:18:53;;;;;;;1.70;1.27;;;;;;;10.52;98.16;99562.50;5039485;28;20545;-87
2023/03/23 05:21:22;;;;;;;2.70;1.40;;;;;;;10.49;98.61;99551.25;5034926;28;20047;-89
2023/03/23 05:26:39;;;;;;;3.10;0.70;;;;;;;10.40;99.06;99561.06;5031391;28;20080;-89
2023/03/23 05:29:10;;;;;;;2.85;1.25;;;;;;;10.38;99.44;99567.25;5034952;28;20040;-89
2023/03/23 05:31:37;;;;;;;3.13;1.25;;;;;;;10.34;100.00;99555.94;5035272;28;20056;-90
2023/03/23 05:34:04;;;;;;;2.05;1.30;;;;;;;10.31;100.00;99560.41;5047290;28;20052;-88
2023/03/23 05:36:35;;;;;;;2.42;0.68;;;;;;;10.33;100.00;99559.47;5045805;28;20418;-88
2023/03/23 05:39:05;;;;;;;3.47;1.45;;;;;;;10.37;100.00;99570.75;5033003;28;20048;-88
2023/03/23 05:41:41;;;;;;;1.10;0.80;;;;;;;10.37;100.00;99561.13;5046969;28;20123;-87
2023/03/23 05:44:26;;;;;;;1.13;0.90;;;;;;;10.39;100.00;99555.84;5052883;28;20047;-89
2023/03/23 05:46:53;;;;;;;1.33;0.90;;;;;;;10.40;100.00;99554.97;5017911;28;20052;-89
2023/03/23 05:49:21;;;;;;;1.27;1.17;;;;;;;10.40;100.00;99561.06;5023763;28;20053;-87
2023/03/23 05:51:55;;;;;;;1.30;1.20;;;;;;;10.41;100.00;99561.91;5030033;28;20045;-87
2023/03/23 05:54:23;;;;;;;1.30;1.10;;;;;;;10.42;100.00;99558.41;5046870;28;20033;-87
2023/03/23 05:57:03;;;;;;;0.70;0.70;;;;;;;10.45;100.00;99554.84;5050266;28;20049;-88
2023/03/23 05:59:30;;;;;;;3.33;1.20;;;;;;;10.49;100.00;99564.34;5048807;28;20110;-89
2023/03/23 06:02:07;;;;;;;1.20;1.02;;;;;;;10.51;100.00;99562.56;5032318;28;20053;-89
2023/03/23 06:04:34;;;;;;;1.35;0.90;;;;;;;10.58;100.00;99558.84;5029955;28;20523;-88
2023/03/23 06:07:05;;;;;;;2.92;1.13;;;;;;;10.66;99.87;99558.66;5032919;28;20029;-88
2023/03/23 06:09:32;;;;;;;0.90;0.90;;;;;;;10.76;99.00;99560.13;5047130;28;20414;-89
2023/03/23 06:12:05;;;;;;;1.17;0.80;;;;;;;10.83;98.19;99553.78;5031041;28;20128;-88
2023/03/23 06:14:33;;;;;;;0.90;0.70;;;;;;;10.90;97.66;99554.50;5042583;28;20060;-88
2023/03/23 06:17:00;;;;;;;0.80;0.63;;;;;;;10.98;97.10;99556.91;5027944;28;20045;-87
2023/03/23 06:19:34;;;;;;;0.68;0.68;;;;;;;10.99;97.09;99549.00;5045740;28;20151;-87
2023/03/23 06:22:03;;;;;;;2.42;0.73;;;;;;;10.98;97.15;99543.81;5030240;28;20037;-86
2023/03/23 06:24:30;;;;;;;0.38;0.38;;;;;;;10.98;97.05;99546.44;5047597;28;20043;-87
2023/03/23 06:26:57;;;;;;;0.75;0.50;;;;;;;10.98;97.43;99555.16;5049233;28;20049;-88
2023/03/23 06:29:23;;;;;;;0.88;0.60;;;;;;;10.96;97.43;99549.09;5049531;28;20051;-87
2023/03/23 06:31:59;;;;;;;1.27;0.73;;;;;;;10.94;97.39;99561.38;5050052;28;20076;-87
2023/03/23 06:34:26;;;;;;;2.75;0.88;;;;;;;10.97;96.99;99544.72;5047991;28;20131;-89
2023/03/23 06:36:55;;;;;;;0.82;0.50;;;;;;;11.02;96.61;99543.69;5050296;28;20049;-90
2023/03/23 06:39:26;;;;;;;2.75;0.40;;;;;;;11.07;96.34;99554.88;5039304;28;20048;-89
2023/03/23 06:41:59;;;;;;;3.35;1.60;;;;;;;11.24;94.88;99549.16;5040970;28;20048;-88
2023/03/23 06:44:26;;;;;;;0.80;0.80;;;;;;;11.33;94.49;99565.50;5039888;28;20045;-89
2023/03/23 06:46:52;;;;;;;2.10;0.77;;;;;;;11.39;94.33;99567.94;5038537;28;20049;-88
2023/03/23 06:49:19;;;;;;;0.82;0.77;;;;;;;11.46;93.86;99572.09;5070063;28;20543;-90
2023/03/23 06:51:48;;;;;;;0.90;0.68;;;;;;;11.51;93.37;99558.84;5040866;28;20045;-88
2023/03/23 06:54:15;;;;;;;1.63;0.70;;;;;;;11.57;92.33;99571.78;5037233;28;20827;-90
2023/03/23 06:57:00;;;;;;;1.02;0.57;;;;;;;11.58;92.55;99576.97;5049453;28;20055;-88
2023/03/23 06:59:29;;;;;;;1.65;0.88;;;;;;;11.56;92.27;99575.28;5037044;28;20142;-88
2023/03/23 07:02:02;;;;;;;3.40;0.90;;;;;;;11.52;92.73;99571.06;5034546;28;20056;-88
2023/03/23 07:04:32;;;;;;;0.85;0.70;;;;;;;11.54;92.55;99577.13;5048175;28;20033;-89
2023/03/23 07:06:59;;;;;;;1.20;0.80;;;;;;;11.52;93.06;99582.38;5046756;28;20052;-87
2023/03/23 07:09:32;;;;;;;2.30;0.77;;;;;;;11.51;92.90;99585.06;5049801;28;20037;-90
2023/03/23 07:12:01;;;;;;;1.63;0.85;;;;;;;11.44;93.52;99573.91;5050622;28;20046;-89
2023/03/23 07:14:28;;;;;;;0.63;0.52;;;;;;;11.46;93.91;99589.56;5029555;28;20041;-89
2023/03/23 07:16:55;;;;;;;0.70;0.70;;;;;;;11.50;93.76;99585.94;5032861;28;20053;-89
2023/03/23 07:19:22;;;;;;;1.55;0.60;;;;;;;11.53;93.67;99591.97;5037645;28;20057;-91
2023/03/23 07:21:50;;;;;;;1.10;0.63;;;;;;;11.57;93.63;99582.25;5037534;28;20148;-86
2023/03/23 07:24:18;;;;;;;5.13;0.85;;;;;;;11.59;93.41;99586.53;5038731;28;20147;-87
2023/03/23 07:26:45;;;;;;;1.45;0.57;;;;;;;11.66;93.39;99592.47;5052393;28;20045;-90
2023/03/23 07:29:11;;;;;;;2.65;0.88;;;;;;;11.71;93.51;99584.47;5051009;28;20049;-89
2023/03/23 07:31:39;;;;;;;2.50;1.10;;;;;;;11.78;92.69;99582.50;5039367;28;20306;-89
2023/03/23 07:34:09;;;;;;;0.70;0.70;;;;;;;11.87;92.26;99584.84;5041552;28;20036;-87
2023/03/23 07:36:37;;;;;;;1.67;1.02;;;;;;;11.85;91.93;99584.91;5032484;28;20559;-89
2023/03/23 07:39:07;;;;;;;1.85;1.13;;;;;;;11.92;92.12;99582.94;5037525;28;20044;-89
2023/03/23 07:41:34;;;;;;;1.98;1.23;;;;;;;11.96;91.54;99581.09;5034393;28;20055;-86
2023/03/23 07:44:00;;;;;;;1.98;0.80;;;;;;;12.07;91.21;99587.72;5049487;28;20064;-86
2023/03/23 07:46:30;;;;;;;2.65;0.82;;;;;;;12.27;89.62;99585.34;5047159;28;20385;-87
2023/03/23 07:48:57;;;;;;;0.75;0.75;;;;;;;12.26;89.41;99586.28;5038077;28;20048;-83
2023/03/23 07:51:27;;;;;;;3.88;0.88;;;;;;;12.39;88.37;99582.31;5040592;28;20049;-85
2023/03/23 07:54:02;;;;;;;2.95;1.00;;;;;;;12.55;86.98;99583.53;5036268;28;20103;-84
2023/03/23 07:56:35;;;;;;;1.90;0.85;;;;;;;12.62;86.37;99580.66;5056041;28;20044;-84
2023/03/23 07:59:02;;;;;;;4.93;0.82;;;;;;;12.62;86.66;99585.91;5044684;28;20037;-84
2023/03/23 08:01:30;;;;;;;5.10;1.08;;;;;;;12.69;86.25;99569.91;5053534;28;20128;-83
2023/03/23 08:03:57;;;;;;;1.77;1.05;;;;;;;12.90;85.44;99585.81;5039603;28;20041;-84
2023/03/23 08:06:29;;;;;;;2.22;1.10;;;;;;;13.14;84.22;99584.06;5049531;28;20060;-85
2023/03/23 08:08:57;;;;;;;2.25;0.95;;;;;;;13.25;83.04;99581.03;5034222;28;20125;-85
2023/03/23 08:11:24;;;;;;;1.55;1.45;;;;;;;13.25;82.68;99591.56;5047718;28;20079;-84
2023/03/23 08:13:52;;;;;;;0.80;0.80;;;;;;;13.24;82.68;99590.72;5045142;28;21313;-84
2023/03/23 08:16:21;;;;;;;1.70;1.00;;;;;;;13.21;82.06;99582.91;5037679;28;20072;-84
2023/03/23 08:18:47;;;;;;;2.38;0.88;;;;;;;13.19;82.04;99587.41;5051111;28;20091;-85
2023/03/23 08:21:18;;;;;;;1.58;0.85;;;;;;;13.50;81.10;99583.63;5051645;28;20129;-84
2023/03/23 08:23:45;;;;;;;0.88;0.80;;;;;;;13.72;80.38;99596.81;5045728;28;20049;-84
2023/03/23 08:26:14;;;;;;;2.47;0.73;;;;;;;13.79;79.37;99600.03;5062498;28;20041;-84
2023/03/23 08:28:44;;;;;;;1.25;0.95;;;;;;;13.73;79.29;99597.69;5050577;28;20511;-83
2023/03/23 08:31:14;;;;;;;1.25;1.00;;;;;;;13.69;79.11;99593.47;5052434;28;20055;-83
2023/03/23 08:33:44;;;;;;;3.20;1.20;;;;;;;13.61;79.15;99601.63;5045048;28;20448;-83
2023/03/23 08:36:11;;;;;;;1.23;0.70;;;;;;;13.47;80.03;99604.78;5053772;28;20049;-83
2023/03/23 08:38:42;;;;;;;2.33;1.13;;;;;;;13.44;80.36;99606.66;5036759;28;20047;-86
2023/03/23 08:41:10;;;;;;;3.45;0.80;;;;;;;13.43;80.16;99610.19;5035295;28;20448;-84
2023/03/23 08:43:39;;;;;;;2.30;1.08;;;;;;;13.40;80.24;99604.16;5050567;28;20078;-85
2023/03/23 08:46:12;;;;;;;2.40;0.70;;;;;;;13.40;80.56;99621.69;5035034;28;20055;-84
2023/03/23 08:48:39;;;;;;;4.07;1.60;;;;;;;13.45;79.90;99619.75;5036685;28;20051;-85
2023/03/23 08:51:08;;;;;;;2.88;1.63;;;;;;;13.44;79.90;99606.66;5039819;28;20045;-85
2023/03/23 08:53:38;;;;;;;1.13;1.13;;;;;;;13.47;79.86;99615.31;5048910;28;20045;-85
2023/03/23 08:56:10;;;;;;;2.03;0.82;;;;;;;13.47;79.94;99617.94;5051395;28;20513;-85
2023/03/23 08:58:42;;;;;;;3.67;1.25;;;;;;;13.45;80.05;99627.63;5048770;28;20044;-87
2023/03/23 09:01:14;;;;;;;2.97;1.13;;;;;;;13.48;80.13;99631.91;5033521;28;20371;-85
2023/03/23 09:03:40;;;;;;;6.15;1.67;;;;;;;13.47;79.23;99635.47;5047830;28;20592;-85
2023/03/23 09:06:12;;;;;;;4.82;0.80;;;;;;;13.51;79.33;99608.16;5046604;28;20083;-85
2023/03/23 09:08:40;;;;;;;2.35;1.27;;;;;;;13.44;79.32;99623.31;5030357;28;20052;-86
2023/03/23 09:11:10;;;;;;;2.45;1.13;;;;;;;13.34;80.17;99622.75;5044567;28;20127;-85
2023/03/23 09:13:39;;;;;;;5.13;2.13;;;;;;;13.33;80.57;99618.41;5041222;28;20090;-84
2023/03/23 09:16:09;;;;;;;2.95;1.10;;;;;;;13.35;80.54;99631.47;5046393;28;20044;-85
2023/03/23 09:18:39;;;;;;;2.08;1.27;;;;;;;13.31;80.68;99627.25;5042824;28;20084;-87
2023/03/23 09:21:08;;;;;;;4.10;1.55;;;;;;;13.27;80.27;99629.16;5041190;28;20059;-85
2023/03/23 09:23:37;;;;;;;5.05;1.00;;;;;;;13.27;80.14;99620.41;5027163;28;20082;-86
2023/03/23 09:26:04;;;;;;;3.60;0.95;;;;;;;13.33;80.08;99614.94;5047334;28;20033;-85
2023/03/23 09:28:36;;;;;;;4.43;1.38;;;;;;;13.40;79.36;99625.19;5031286;28;20071;-86
2023/03/23 09:31:04;;;;;;;5.95;2.00;;;;;;;13.47;79.54;99620.56;5034570;28;20389;-85
2023/03/23 09:33:37;;;;;;;3.22;1.15;;;;;;;13.56;79.06;99632.50;5063000;28;20068;-85
2023/03/23 09:36:05;;;;;;;4.57;1.33;;;;;;;13.51;79.03;99622.16;5017862;28;20037;-84
2023/03/23 09:38:36;;;;;;;3.60;1.20;;;;;;;13.46;79.27;99645.13;5030702;28;20046;-85
2023/03/23 09:41:57;;;;;;;3.78;1.13;;;;;;;13.42;79.79;99647.94;5043919;28;20099;-85
2023/03/23 09:44:45;;;;;;;2.17;1.23;;;;;;;13.34;79.52;99645.56;5056322;28;20201;-87
2023/03/23 09:48:01;;;;;;;7.97;1.63;;;;;;;13.22;80.21;99641.63;5030099;28;20083;-85
2023/03/23 09:50:32;;;;;;;3.70;1.42;;;;;;;13.20;80.48;99649.53;5046289;28;20682;-83
2023/03/23 09:53:01;;;;;;;4.38;1.67;;;;;;;13.26;80.20;99634.44;5043803;28;20055;-85
2023/03/23 09:55:31;;;;;;;2.50;1.05;;;;;;;13.19;80.67;99653.09;5062428;28;20202;-86
2023/03/23 09:58:24;;;;;;;8.63;1.77;;;;;;;13.21;80.67;99658.28;5029401;28;20051;-86
2023/03/23 10:01:09;;;;;;;4.63;1.60;;;;;;;13.18;80.33;99654.00;5043278;28;20052;-86
2023/03/23 10:03:46;;;;;;;5.80;1.58;;;;;;;13.11;80.48;99646.38;5029606;28;20155;-85
2023/03/23 10:06:20;;;;;;;4.38;1.10;;;;;;;13.16;80.12;99662.84;5043936;28;20037;-85
2023/03/23 10:08:59;;;;;;;;;;;;;;;13.14;80.09;99662.91;5044718;28;20044;-85
2023/03/23 10:11:47;;;;;;;5.93;1.50;;;;;;;13.14;79.85;99670.78;5044847;28;20354;-86
2023/03/23 10:14:55;;;;;;;5.82;1.13;;;;;;;13.18;79.60;99661.88;5040996;28;20041;-85
2023/03/23 10:17:41;;;;;;;3.92;1.20;;;;;;;13.28;79.48;99669.44;5046831;28;20126;-84
2023/03/23 10:20:36;;;;;;;4.95;1.73;;;;;;;13.45;78.48;99669.69;5026053;28;20348;-84
2023/03/23 10:23:10;;;;;;;5.40;1.55;;;;;;;13.56;77.97;99682.47;5041068;28;20128;-85
2023/03/23 10:25:53;;;;;;;4.53;1.88;;;;;;;13.61;77.36;99672.63;5028632;28;20091;-85
2023/03/23 10:28:38;;;;;;;2.22;1.20;;;;;;;13.60;76.80;99673.53;5008998;28;20126;-87
2023/03/23 10:31:20;;;;;;;2.25;1.25;;;;;;;13.65;76.77;99671.59;5022828;28;20052;-85
2023/03/23 10:33:53;;;;;;;5.15;1.40;;;;;;;13.62;76.72;99676.97;5026207;28;21008;-85
2023/03/23 10:36:35;;;;;;;4.45;1.13;;;;;;;13.72;76.17;99672.22;5024102;28;20053;-85
2023/03/23 10:39:16;;;;;;;3.00;1.15;;;;;;;13.84;75.91;99670.91;5002107;28;20057;-86
2023/03/23 10:41:43;;;;;;;4.53;1.35;;;;;;;14.01;74.69;99672.88;5007108;28;20068;-84
2023/03/23 10:44:18;;;;;;;2.28;1.08;;;;;;;14.56;72.55;99681.22;5024957;28;20451;-87
2023/03/23 10:47:03;;;;;;;4.45;1.50;;;;;;;15.44;68.67;99678.41;5026179;28;20051;-85
2023/03/23 10:49:50;;;;;;;1.85;0.98;;;;;;;15.60;67.81;99686.50;5024219;28;20072;-85
2023/03/23 10:52:41;;;;;;;11.95;1.70;;;;;;;16.71;63.49;99678.59;5024455;28;20045;-85
2023/03/23 10:55:20;;;;;;;4.68;1.60;;;;;;;17.27;61.70;99679.31;5008208;28;20044;-85
2023/03/23 10:58:06;;;;;;;1.58;0.98;;;;;;;16.70;61.50;99687.50;5022471;28;20052;-85
2023/03/23 11:03:59;;;;;;;3.92;1.10;;;;;;;16.29;62.18;99658.66;5119771;23;20164;-77
2023/03/23 11:06:29;;;;;;;;;;;;;;;16.24;62.39;99672.09;5056610;28;20041;-85
2023/03/23 11:09:42;;;;;;;3.40;0.90;;;;;;;15.95;63.63;99668.22;5053949;28;19944;-78
2023/03/23 11:12:18;;;;;;;4.90;1.63;;;;;;;16.01;64.07;99673.22;5044949;28;20095;-77
2023/03/23 11:14:47;;;;;;;3.90;1.38;;;;;;;15.92;64.07;99663.06;5067509;28;20048;-76
2023/03/23 11:17:28;;;;;;;6.85;1.77;;;;;;;15.88;63.56;99679.03;5054038;28;20037;-81
2023/03/23 11:19:55;;;;;;;4.95;1.38;;;;;;;15.86;64.06;99669.47;5048442;28;20036;-81
2023/03/23 11:22:33;;;;;;;14.57;2.05;;;;;;;15.86;63.71;99680.03;5052690;28;20036;-82
2023/03/23 11:25:06;;;;;;;8.20;1.73;;;;;;;15.77;63.08;99673.38;5051614;28;20052;-81
2023/03/23 11:27:34;;;;;;;4.22;1.30;;;;;;;15.61;63.83;99672.38;5054721;28;20052;-89
2023/03/23 11:30:10;;;;;;;4.43;1.25;;;;;;;15.49;64.53;99679.91;5062786;28;20037;-85
2023/03/23 11:32:38;;;;;;;8.15;1.50;;;;;;;15.40;64.78;99675.06;5057094;28;20033;-89
2023/03/23 11:35:17;;;;;;;4.28;1.40;;;;;;;15.37;64.33;99683.13;5063199;28;20115;-85
2023/03/23 11:37:58;;;;;;;7.20;1.33;;;;;;;15.28;64.51;99670.31;5067490;28;20093;-78
2023/03/23 11:40:31;;;;;;;4.97;1.83;;;;;;;15.19;65.08;99672.44;5043026;28;20098;-79
2023/03/23 11:43:24;;;;;;;15.25;1.73;;;;;;;15.11;65.39;99685.09;5073271;28;20489;-84
2023/03/23 11:46:09;;;;;;;7.47;1.60;;;;;;;15.38;64.67;99683.03;5060135;28;20040;-78
2023/03/23 11:48:45;;;;;;;3.70;1.52;;;;;;;15.29;63.50;99694.00;5062341;28;20049;-82
2023/03/23 11:51:47;;;;;;;7.28;1.58;;;;;;;15.00;64.01;99659.19;5073999;28;20036;-77
2023/03/23 11:54:40;;;;;;;12.90;2.45;;;;;;;14.74;65.08;99685.81;5054894;28;20162;-79
2023/03/23 11:57:13;;;;;;;3.53;1.40;;;;;;;14.68;65.32;99681.66;5052345;28;20087;-79
2023/03/23 11:59:40;;;;;;;8.25;1.88;;;;;;;14.56;65.69;99675.94;5051709;28;20048;-77
2023/03/23 12:02:32;;;;;;;5.05;1.48;;;;;;;14.51;66.40;99684.94;5052878;28;20041;-79
2023/03/23 12:05:31;;;;;;;4.55;2.03;;;;;;;14.39;67.90;99691.56;5057835;28;20044;-78
2023/03/23 12:08:49;;;;;;;6.88;2.45;;;;;;;14.07;72.48;99730.53;5047943;28;20045;-80
2023/03/23 12:11:36;;;;;;;7.63;1.67;;;;;;;12.37;96.85;99755.59;5051458;28;20091;-77
2023/03/23 12:14:34;;;;;;;5.07;1.92;;;;;;;11.90;100.00;99765.69;5069166;28;20131;-79
2023/03/23 12:17:23;;;;;;;3.70;1.55;;;;;;;11.51;100.00;99747.53;5054867;28;20042;-77
2023/03/23 12:20:28;;;;;;;0.73;0.73;;;;;;;11.22;100.00;99743.94;5052251;28;20076;-76
2023/03/23 12:23:18;;;;;;;5.00;0.93;;;;;;;11.08;100.00;99746.91;5055781;28;20097;-86